Haleeka, Pennsylvania
Current Conditions -  °F | °C
As of 12:54 AM on Monday 24 Nov 2014 (Local Time) from KIPT Reporting Station
Heavy Rain Heavy Rain  
Wind Chill: 44°   Ceiling: 1200
Heat Index: 48°   Visibility: 5mi
Dew Point: 45°   Wind: 8mph
Humidity: 89%   Direction: 110°ESE
Pressure: 29.74"   Gusts: NA
Location:  41.3181°N, 77.075°W
Report Text: KIPT 240554Z AUTO 11007KT 5SM +RA BR OVC012 09/07 A2974 RMK AO2 SLP073 P0014 60018 T00890072 10111 20033 58057
Loading
Personal Weather Stations






























Interactive Weather Map New forecast layout! Learn more

10-Day Weather Forecast

Advertisements
Track Severe Weather on mobile